Timeline UpdatesTrip UpdatesNews PostsPvt PostsTravel TipsAdmin PostsConv PostsFollowed PostsChat RequestsBlog PostsPNR Posts

Disclaimer
Search
 
 
Tue Sep 2, 2014 12:21:47 ISTHomeTrainsΣChainsAtlasPNRForumGalleryNewsFAQTripsMembersLoginFeedback
No Recent News for this Train
Other Trains in the News **new
Latest...
Last run over.
Thu Jul 03, 2014 (06:27AM)
⇐ Return Journey: Train# 13111

13112/Lal Quila Express

TRAIN IS CANCELLED
Change Departure Station:
Change Arrival Station:
Post a Train Travel TipPost a Train Travel Tip **new
Post a Comment/Question/Picture/VideoPost a Comment/Question/Picture/Video
Pantry/Catering
✕ NO Pantry Car
✓ Catering Avbl
RSA - Rake Sharing
Rake/Coach Composition
loco(WAP4) slr ur rms ur b2 s4 s3 s2 ur ur b1 s1 slr hcpv hcpv.;the last 4 passenger coaches(ur b1 s1 slr) comes from giridih by 53520 giridih madhupur passenger that leaves giridih at 2250 hrs to reach madhupur at 2345 hrs to get attached to 13112 dli koaa...
Read more...
lal quila express at madhupur at 0140hrs
Loco
LOCO:WAP4 HOWRAH/GHAZIABAD SHED
News    PNR    Forum    Time-Table    Availability    Fare Chart    Map    Arr/Dep History    Trips    Gallery    ΣChains    X/O    Timeline    
Travel Time: 11h 46m    19 halts    Distance: 533 km    Avg Speed: 45 km/hr
Type: Mail/Express
Zone: ER/Eastern
Departs @ 20:50
Platform# 5
SMTWTFS
Old Delhi Junction/DLI 
Arrives @ 08:36 +1 night
Platform# ???
SMTWTFS
Rasulabad/RUB 

19 halts. 77 intermediate Stations between Old Delhi Junction and Rasulabad

Show ALL intermediate Stations  

#CodeStation NameX/OArrivesAvgDepartsAvgHaltPFDay#KmSpeedElevZoneAddress
1DLI»Old Delhi Junction (16)»  -20:50-510.028219mNRNear Chandni Chowk Metro Station, Delhi NCT
2GZBGhaziabad Junction (6)  21:33-21:35-2m2120.138217mNRGhaziabad, Uttar Pradesh
3KRJKhurja Junction (4)  23:15-23:18-3m--182.772199mNCRBulandshahr, Uttar Pradesh
4ALJNAligarh Junction (4)  23:54-23:59-5m21126.240192mNCRAligarh, Uttar Pradesh
5HRSHathras Junction (3)  00:44-00:49-5m--2156.463183mNCRMahamaya Nagar(05722-242803), Uttar Pradesh
6TDLTundla Junction (5)  01:35-01:45-10m32204.450167mNCRDistt.Firozabad, Uttar Pradesh
7FZDFirozabad (4)  02:05-02:07-2m22220.960164mNCRFirozabad, Uttar Pradesh
8SKBShikohabad Junction (4)  02:27-02:29-2m22240.885166mNCRDistrict Firozabad, Uttar Pradesh
9ETWEtawah (5)  03:08-03:10-2m32296.289154mNCRDistt. Etawah, Uttar Pradesh
10PHDPhaphund (4)  03:48-03:50-2m32352.429146mNCRdist. Auraiya, Uttar Pradesh
11JJKJhinjhak (3)  04:31-04:33-2m22372.222140mNCRAuraiya, Uttar Pradesh
12RURARura (4)  05:26-05:28-2m--2391.249137mNCRJhinjhak, Uttar Pradesh
13PNKPanki (3)  06:08-06:10-2m--2424.046129mNCRKANPUR-208 020, Uttar Pradesh
14GOYGovindpuri Junction (2)  06:20-06:22-2m22431.713129mNCRKANPUR-208 006, Uttar Pradesh
15CNBKanpur Central (10)  06:40-06:50-10m42435.468128mNCRKANPUR-208 001, Uttar Pradesh
16KBNKarbigwan  07:20-07:22-2m--2469.553121mNCRFatehpur, Uttar Pradesh
17BKOBindki Road  07:36-07:38-2m--2481.865124mNCRFatehpur, Uttar Pradesh
18MWHMalwan (2)  07:52-07:54-2m--2496.951122mNCRFatehpur, Uttar Pradesh
19FTPFatehpur (3)  08:13-08:15-2m22513.060120mNCRFatehpur, Uttar Pradesh
20FYZFaizullapur  08:26-08:28-2m--2524.168115mNCRFaizullapur, Uttar Pradesh
21RUB•Rasulabad•  08:36-08:38-2m--2533.267118mNCRRasulabad, Uttar Pradesh
22KGAKhaga (3)  08:51-08:53-2m--2547.774114mNCRFatehpur, Uttar Pradesh
23SROSirathu (2)  09:13-09:15-2m12572.671109mNCRSirathu, Uttar Pradesh
24BREBharwari  09:32-09:34-2m--2592.731108mNCRBharwari, Uttar Pradesh
25ALDAllahabad Junction (10)  10:45-10:58-13m42629.836100mNCRAllahabad 211003, Uttar Pradesh
26NYNNaini Junction (4)  11:10-11:12-2m12636.97898mNCRAllahabad, Uttar Pradesh
27MJAMeja Road (4)  11:36-11:38-2m--2667.96594mNCRDistrict Allahabad, Uttar Pradesh
28MNFManda Road  11:53-11:55-2m--2684.17293mNCRNH 76, Uttar Pradesh
29BDLVindhyachal (3)  12:18-12:20-2m--2711.62488mNCRMirzapur, Uttar Pradesh
30MZPMirzapur (3)  12:38-12:40-2m--2719.08288mNCRMirzapur, Uttar Pradesh
31CARChunar Junction (5)  13:03-13:05-2m32750.23585mNCRChunar Junction, Uttar Pradesh
32MGSMughal Sarai Junction (8)  14:00-14:15-15m12782.17683mECRMughalsarai 232101, Uttar Pradesh
33ZNAZamania (2)  14:50-14:52-2m--2826.46777mECRGhazipur, Uttar Pradesh
34DLNDildarnagar Junction (2)  15:04-15:06-2m--2839.89472mECRDildarnagar, Uttar Pradesh
35BWHBhadaura (2)  15:11-15:13-2m--2847.77069mECRGhazipur, Uttar Pradesh
36GMRGahmar (2)  15:20-15:22-2m--2855.94668mECRDistt: Ghazipur, Uttar Pradesh
37CSAChausa (2)  15:34-15:36-2m--2865.12668mECRState Highway 14, Bihar
38BXRBuxar (3)  16:01-16:05-4m--2876.19867mECRBuxar, Bihar
39DUREDumraon (3)  16:15-16:17-2m--2892.47470mECRDumraon, Bihar
40RPRRaghunathpur (4)  16:30-16:32-2m--2908.46669mECRRaghunathpur, Bihar
41BYNBanahi (2)  16:40-16:42-2m--2917.24467mECRBanahi, Bihar
42BEABihiya (3)  16:50-16:52-2m--2923.17167mECRBehea, Bihar
43ARAAra Junction (3)  17:10-17:14-4m--2944.58563mECRarrah( 06182-233411), Bihar
44KUAKulharia (2)  17:21-17:23-2m--2954.53161mECRChandi Sahar Rd, Bihar
45KWRKoelwar (2)  17:30-17:32-2m--2958.06665mECRNational Highway 30, Bihar
46BTABihta (2)  17:40-17:42-2m--2966.81862mECRDistt: Patna, Bihar
47DNRDanapur (5)  18:40-19:00-20m--2984.12358mECRKhagaul, Bihar
48PNBEPatna Junction (10)  19:25-19:35-10m22993.52257mECRPatna 800001, Bihar
49RJPBRajendra Nagar Bihar (4)  19:42-19:44-2m--2996.15155mECRPatna 800001, Bihar
50GZHGulzarbagh (3)  19:49-19:51-2m--21000.32655mECRPatna, Bihar
51PNCPatna Saheb (3)  19:58-20:00-2m--21003.45359mECRPatna, Bihar
52BKGBanka Ghat (2)  20:07-20:09-2m--21009.56156mECRPatna, Bihar
53FUTFatwa (6)  20:15-20:17-2m--21015.66353mECRPatna, Bihar
54KOOKhusropur (2)  20:25-20:27-2m--21024.16252mECRPatna, Bihar
55BKPBakhtiyarpur Junction (5)  20:41-20:43-2m--21038.66451mECRPatna, Bihar
56BARHBarh (3)  21:00-21:02-2m--21056.82549mECRBarh, Bihar
57MKAMokama Junction (4)  22:03-22:08-5m--21082.87648mECRPatna, Bihar
58BRYABarhiya (3)  22:22-22:24-2m--21100.57047mECRBarahiya, Bihar
59LKRLuckeesarai Junction (2)  22:37-22:39-2m--21115.6852mECRLakhisarai, Bihar
60KIULKiul Junction (5)  22:49-22:54-5m--21117.08253mECRDist. Lakhisarai, Bihar
61JMUJamui (3)  23:14-23:16-2m--21144.34281mECRState Highway 72, Bihar
62JAJJhajha (4)  23:53-23:58-5m--21170.383143mECRJhajha, Bihar
63JSMEJasidih Junction (5)  00:30-00:35-5m--31214.470271mERJasidih, Jharkhand
64MDPMadhupur Junction (4)  01:00-01:40-40m--31243.490254mER06432-224478, Jharkhand
65JMTJamtara (2)  02:08-02:10-2m231285.554201mERJamtara, Jharkhand
66CRJChittaranjan (3)  02:26-02:28-2m231299.841182mERMihijam, Jharkhand
67ASNAsansol Junction (7)  03:05-03:15-10m--31324.972113mERDist - bardhaman, West Bengal
68RNGRaniGanj (4)  03:30-03:32-2m--31343.07292mERRaniganj, West Bengal
69BWNBarddhaman Junction (8)  04:45-04:50-5m--31430.96134mERDist - Barddhaman, West Bengal
70BDCBandel Junction (7)  05:56-06:01-5m--31498.22414mERdist - HOOGHLY, West Bengal
71NHNaihati Junction (5)  06:22-06:30-8m--31506.53515mERdist - North 24 paraganas - 743165, West Bengal
72KOAAKolkata Chitpur (5)  07:30--531541.4-6mERKolkata, West Bengal
Scroll to Top
Scroll to Bottom